Time;durP1;ratioP1;P1;durP2;ratioP2;P2;SDS_P1;SDS_P2;PMS_P1;PMS_P2;Temp;Humidity;BMP_temperature;BMP_pressure;BME280_temperature;BME280_humidity;BME280_pressure;Samples;Min_cycle;Max_cycle;Signal;HPM_P1;HPM_P2
2023/12/05 00:01:07;;;;;;;8.10;5.85;;;;;6.20;97047.00;;;;5054332;28;20049;-64
2023/12/05 00:03:35;;;;;;;7.47;5.57;;;;;6.20;97041.00;;;;5053644;28;20559;-64
2023/12/05 00:06:02;;;;;;;6.25;5.25;;;;;6.30;97042.00;;;;5054176;28;20072;-64
2023/12/05 00:08:28;;;;;;;7.47;5.65;;;;;6.30;97036.00;;;;5052956;28;20093;-63
2023/12/05 00:10:55;;;;;;;5.78;4.70;;;;;6.40;97031.00;;;;5054328;28;20128;-64
2023/12/05 00:13:23;;;;;;;13.75;6.00;;;;;6.40;97035.00;;;;5053687;28;20509;-60
2023/12/05 00:15:49;;;;;;;9.30;5.50;;;;;6.40;97045.00;;;;5053947;28;20033;-64
2023/12/05 00:18:16;;;;;;;8.07;5.63;;;;;6.40;97037.00;;;;5054007;28;20410;-64
2023/12/05 00:20:43;;;;;;;6.93;5.90;;;;;6.30;97036.00;;;;5053850;28;20127;-63
2023/12/05 00:23:09;;;;;;;7.78;5.63;;;;;6.40;97037.00;;;;5054019;28;20059;-64
2023/12/05 00:25:36;;;;;;;8.30;5.70;;;;;6.30;97040.00;;;;5052181;28;20136;-64
2023/12/05 00:28:03;;;;;;;7.85;5.82;;;;;6.40;97037.00;;;;5052898;28;20041;-65
2023/12/05 00:30:29;;;;;;;9.82;6.05;;;;;6.30;97036.00;;;;5053882;28;20045;-64
2023/12/05 00:32:56;;;;;;;9.00;6.18;;;;;6.40;97042.00;;;;5053831;28;20053;-64
2023/12/05 00:35:24;;;;;;;9.48;6.60;;;;;6.40;97045.00;;;;5053336;28;20055;-64
2023/12/05 00:37:50;;;;;;;8.38;6.60;;;;;6.40;97048.00;;;;5053667;28;20045;-64
2023/12/05 00:40:17;;;;;;;7.85;5.75;;;;;6.40;97044.00;;;;5053569;28;20162;-64
2023/12/05 00:42:44;;;;;;;8.48;6.35;;;;;6.40;97046.00;;;;5053586;28;20120;-61
2023/12/05 00:45:12;;;;;;;9.35;6.30;;;;;6.40;97048.00;;;;5052717;28;20075;-61
2023/12/05 00:47:40;;;;;;;8.23;5.97;;;;;6.40;97043.00;;;;5052151;28;20391;-61
2023/12/05 00:50:07;;;;;;;9.95;6.43;;;;;6.40;97046.00;;;;5053506;28;20068;-61
2023/12/05 00:52:34;;;;;;;8.93;6.20;;;;;6.40;97048.00;;;;5053388;28;20051;-62
2023/12/05 00:55:00;;;;;;;8.80;6.03;;;;;6.40;97051.00;;;;5052673;28;20069;-61
2023/12/05 00:57:27;;;;;;;8.40;6.03;;;;;6.40;97061.00;;;;5053279;28;20119;-62
2023/12/05 00:59:54;;;;;;;9.38;6.25;;;;;6.40;97064.00;;;;5053148;28;20099;-62
2023/12/05 01:02:20;;;;;;;7.85;5.95;;;;;6.50;97070.00;;;;5053083;28;20132;-60
2023/12/05 01:04:47;;;;;;;9.07;6.60;;;;;6.50;97064.00;;;;5052444;28;20055;-61
2023/12/05 01:07:14;;;;;;;8.95;6.65;;;;;6.50;97066.00;;;;5052942;28;20098;-62
2023/12/05 01:09:41;;;;;;;9.40;6.72;;;;;6.50;97064.00;;;;5053048;28;20124;-61
2023/12/05 01:12:11;;;;;;;9.18;6.68;;;;;6.50;97064.00;;;;5053074;28;20098;-60
2023/12/05 01:14:37;;;;;;;9.48;6.10;;;;;6.50;97061.00;;;;5052224;28;20127;-60
2023/12/05 01:17:04;;;;;;;8.60;6.15;;;;;6.50;97071.00;;;;5052989;28;20071;-61
2023/12/05 01:19:31;;;;;;;10.57;6.85;;;;;6.50;97070.00;;;;5052974;28;20406;-62
2023/12/05 01:21:57;;;;;;;10.07;6.40;;;;;6.50;97072.00;;;;5052875;28;20120;-61
2023/12/05 01:24:24;;;;;;;9.70;6.00;;;;;6.50;97069.00;;;;5052185;28;20351;-62
2023/12/05 01:26:51;;;;;;;8.95;6.10;;;;;6.50;97078.00;;;;5052736;28;20453;-64
2023/12/05 01:29:17;;;;;;;9.50;6.40;;;;;6.50;97072.00;;;;5052672;28;20041;-65
2023/12/05 01:31:44;;;;;;;9.18;6.30;;;;;6.60;97073.00;;;;5052911;28;20116;-65
2023/12/05 01:34:10;;;;;;;8.60;6.70;;;;;6.60;97081.00;;;;5052132;28;20123;-65
2023/12/05 01:36:37;;;;;;;8.93;6.85;;;;;6.60;97073.00;;;;5052669;28;20063;-64
2023/12/05 01:39:04;;;;;;;10.32;6.30;;;;;6.60;97077.00;;;;5052621;28;20049;-64
2023/12/05 01:41:30;;;;;;;7.88;5.90;;;;;6.60;97070.00;;;;5051304;28;20136;-64
2023/12/05 01:43:57;;;;;;;7.85;6.38;;;;;6.50;97072.00;;;;5051941;28;20055;-63
2023/12/05 01:46:24;;;;;;;9.13;6.50;;;;;6.60;97065.00;;;;5052272;28;20569;-63
2023/12/05 01:48:50;;;;;;;8.20;6.38;;;;;6.50;97064.00;;;;5052425;28;20413;-62
2023/12/05 01:51:17;;;;;;;8.70;6.63;;;;;6.40;97063.00;;;;5051932;28;20055;-61
2023/12/05 01:53:45;;;;;;;8.43;6.70;;;;;6.40;97066.00;;;;5051643;28;20048;-62
2023/12/05 01:56:13;;;;;;;8.70;6.47;;;;;6.40;97073.00;;;;5052098;28;20045;-61
2023/12/05 01:58:40;;;;;;;7.60;6.20;;;;;6.30;97074.00;;;;5052330;28;20127;-63
2023/12/05 02:01:08;;;;;;;8.88;6.28;;;;;6.40;97075.00;;;;5052161;28;20436;-61
2023/12/05 02:03:35;;;;;;;8.75;6.18;;;;;6.40;97078.00;;;;5050666;28;20512;-62
2023/12/05 02:06:03;;;;;;;10.73;6.65;;;;;6.50;97073.00;;;;5052715;28;20041;-60
2023/12/05 02:08:31;;;;;;;9.00;5.97;;;;;6.50;97083.00;;;;5052555;28;20052;-58
2023/12/05 02:10:58;;;;;;;11.32;6.55;;;;;6.50;97077.00;;;;5052116;28;20123;-61
2023/12/05 02:13:25;;;;;;;8.88;6.93;;;;;6.50;97073.00;;;;5051567;28;20510;-60
2023/12/05 02:16:23;;;;;;;10.68;6.80;;;;;6.50;97073.00;;;;5052049;28;20658;-60
2023/12/05 02:18:59;;;;;;;8.52;6.28;;;;;6.50;97064.00;;;;5052403;28;20127;-62
2023/12/05 02:21:31;;;;;;;9.70;6.35;;;;;6.50;97069.00;;;;5052704;28;20045;-60
2023/12/05 02:24:06;;;;;;;9.00;6.10;;;;;6.50;97076.00;;;;5052078;28;20053;-60
2023/12/05 02:26:46;;;;;;;9.77;6.50;;;;;6.50;97071.00;;;;5052212;28;20055;-60
2023/12/05 02:29:13;;;;;;;8.32;6.10;;;;;6.50;97082.00;;;;5052347;28;20049;-63
2023/12/05 02:31:39;;;;;;;9.05;6.03;;;;;6.40;97073.00;;;;5052030;28;20051;-63
2023/12/05 02:34:06;;;;;;;8.80;5.97;;;;;6.40;97071.00;;;;5050003;28;20140;-63
2023/12/05 02:36:55;;;;;;;9.13;5.40;;;;;6.50;97078.00;;;;5051809;28;20045;-65
2023/12/05 02:39:34;;;;;;;8.15;5.32;;;;;6.50;97085.00;;;;5051878;28;20494;-62
2023/12/05 02:42:03;;;;;;;6.97;4.95;;;;;6.50;97085.00;;;;5051847;28;20107;-62
2023/12/05 02:44:38;;;;;;;6.53;5.50;;;;;6.50;97078.00;;;;5051048;28;20059;-63
2023/12/05 02:47:07;;;;;;;7.93;5.10;;;;;6.50;97078.00;;;;5051588;28;20041;-63
2023/12/05 02:49:34;;;;;;;9.13;5.25;;;;;6.50;97078.00;;;;5051725;28;20401;-61
2023/12/05 02:52:00;;;;;;;12.18;5.80;;;;;6.50;97075.00;;;;5051657;28;20124;-58
2023/12/05 02:54:27;;;;;;;8.07;5.68;;;;;6.60;97071.00;;;;5049765;28;20102;-62
2023/12/05 02:56:53;;;;;;;9.38;5.70;;;;;6.60;97073.00;;;;5051585;28;20037;-61
2023/12/05 02:59:20;;;;;;;8.65;5.60;;;;;6.60;97066.00;;;;5051522;28;20044;-61
2023/12/05 03:01:47;;;;;;;7.95;5.00;;;;;6.60;97077.00;;;;5051707;28;20041;-61
2023/12/05 03:04:13;;;;;;;6.53;4.25;;;;;6.70;97069.00;;;;5051213;28;20061;-62
2023/12/05 03:06:40;;;;;;;5.90;4.30;;;;;6.70;97076.00;;;;5055210;28;20056;-62
2023/12/05 03:09:07;;;;;;;5.85;4.00;;;;;6.70;97076.00;;;;5055219;28;20071;-61
2023/12/05 03:11:33;;;;;;;7.55;4.22;;;;;6.60;97069.00;;;;5055303;28;20045;-63
2023/12/05 03:14:01;;;;;;;6.75;4.10;;;;;6.70;97071.00;;;;5054637;28;20409;-62
2023/12/05 03:16:28;;;;;;;9.57;4.65;;;;;6.70;97066.00;;;;5055182;28;20047;-62
2023/12/05 03:18:55;;;;;;;5.55;3.85;;;;;6.70;97072.00;;;;5054027;28;20355;-61
2023/12/05 03:21:22;;;;;;;7.45;4.07;;;;;6.70;97070.00;;;;5054854;28;20417;-64
2023/12/05 03:23:49;;;;;;;7.32;4.22;;;;;6.70;97078.00;;;;5054379;28;20037;-64
2023/12/05 03:26:17;;;;;;;5.15;3.60;;;;;6.80;97075.00;;;;5054945;28;20045;-63
2023/12/05 03:28:44;;;;;;;6.22;3.80;;;;;6.80;97075.00;;;;5053720;28;20059;-63
2023/12/05 03:31:10;;;;;;;5.38;3.63;;;;;6.80;97070.00;;;;5053848;28;20142;-63
2023/12/05 03:33:37;;;;;;;4.63;3.20;;;;;6.80;97069.00;;;;5054516;28;20513;-64
2023/12/05 03:36:04;;;;;;;5.68;3.58;;;;;6.80;97067.00;;;;5055003;28;20041;-64
2023/12/05 03:38:31;;;;;;;3.75;2.92;;;;;6.80;97064.00;;;;5054839;28;20041;-64
2023/12/05 03:40:58;;;;;;;6.05;3.03;;;;;6.80;97075.00;;;;5054754;28;20132;-63
2023/12/05 03:43:25;;;;;;;4.28;2.85;;;;;6.80;97074.00;;;;5054182;28;20045;-64
2023/12/05 03:45:51;;;;;;;5.10;2.92;;;;;6.80;97078.00;;;;5054458;28;20399;-63
2023/12/05 03:48:18;;;;;;;5.40;3.20;;;;;6.80;97078.00;;;;5054666;28;20284;-64
2023/12/05 03:50:45;;;;;;;4.45;2.60;;;;;6.80;97076.00;;;;5054388;28;20128;-61
2023/12/05 03:53:12;;;;;;;4.05;2.50;;;;;6.90;97085.00;;;;5054522;28;20123;-61
2023/12/05 03:55:39;;;;;;;4.70;2.40;;;;;6.90;97091.00;;;;5053821;28;20633;-62
2023/12/05 03:58:05;;;;;;;5.00;2.70;;;;;7.00;97081.00;;;;5054395;28;20037;-61
2023/12/05 04:00:32;;;;;;;5.00;2.60;;;;;7.00;97084.00;;;;5053240;28;20051;-62
2023/12/05 04:02:58;;;;;;;5.75;3.00;;;;;7.00;97084.00;;;;5053253;28;20087;-60
2023/12/05 04:05:26;;;;;;;3.83;2.00;;;;;7.00;97085.00;;;;5053151;28;20044;-61
2023/12/05 04:07:53;;;;;;;2.50;1.70;;;;;7.00;97093.00;;;;5054282;28;20408;-61
2023/12/05 04:10:19;;;;;;;4.93;2.28;;;;;7.00;97100.00;;;;5054173;28;20051;-62
2023/12/05 04:12:46;;;;;;;5.70;2.00;;;;;7.00;97097.00;;;;5054154;28;20049;-61
2023/12/05 04:15:13;;;;;;;4.00;2.10;;;;;7.00;97093.00;;;;5053069;28;20087;-60
2023/12/05 04:17:40;;;;;;;3.33;2.22;;;;;7.00;97099.00;;;;5054061;28;20049;-60
2023/12/05 04:20:07;;;;;;;3.95;2.25;;;;;7.00;97096.00;;;;5054019;28;20406;-60
2023/12/05 04:22:34;;;;;;;7.10;2.10;;;;;7.10;97107.00;;;;5054028;28;20087;-61
2023/12/05 04:25:00;;;;;;;4.75;2.03;;;;;7.10;97099.00;;;;5053245;28;20565;-61
2023/12/05 04:27:27;;;;;;;4.10;2.00;;;;;7.10;97113.00;;;;5052638;28;20045;-61
2023/12/05 04:29:53;;;;;;;2.78;1.77;;;;;7.10;97108.00;;;;5053828;28;20049;-61
2023/12/05 04:32:20;;;;;;;2.70;1.67;;;;;7.10;97114.00;;;;5053651;28;20119;-62
2023/12/05 04:34:47;;;;;;;4.90;1.70;;;;;7.10;97116.00;;;;5053188;28;20045;-61
2023/12/05 04:37:13;;;;;;;3.92;1.80;;;;;7.00;97111.00;;;;5053553;28;20045;-61
2023/12/05 04:39:40;;;;;;;5.68;2.40;;;;;7.00;97115.00;;;;5053514;28;20087;-61
2023/12/05 04:42:07;;;;;;;3.13;1.60;;;;;7.00;97110.00;;;;5053567;28;20045;-61
2023/12/05 04:44:33;;;;;;;2.10;1.40;;;;;7.10;97119.00;;;;5052932;28;20063;-61
2023/12/05 04:47:01;;;;;;;4.07;1.50;;;;;7.10;97114.00;;;;5053224;28;20041;-61
2023/12/05 04:49:28;;;;;;;3.42;1.65;;;;;7.00;97121.00;;;;5053525;28;20098;-61
2023/12/05 04:51:55;;;;;;;4.25;1.65;;;;;7.10;97131.00;;;;5053457;28;20105;-62
2023/12/05 04:54:24;;;;;;;3.20;1.50;;;;;7.10;97125.00;;;;5052735;28;20049;-61
2023/12/05 04:56:50;;;;;;;5.78;1.60;;;;;7.10;97125.00;;;;5053290;28;20110;-62
2023/12/05 04:59:17;;;;;;;4.15;1.40;;;;;7.10;97129.00;;;;5053216;28;20119;-61
2023/12/05 05:01:43;;;;;;;3.70;1.45;;;;;7.10;97126.00;;;;5053218;28;20053;-60
2023/12/05 05:04:10;;;;;;;3.35;1.35;;;;;7.10;97121.00;;;;5051342;28;20049;-61
2023/12/05 05:06:37;;;;;;;4.20;1.20;;;;;7.10;97124.00;;;;5053029;28;20465;-61
2023/12/05 05:09:04;;;;;;;3.80;1.75;;;;;7.10;97123.00;;;;5051854;28;20494;-61
2023/12/05 05:11:30;;;;;;;3.45;1.35;;;;;7.10;97134.00;;;;5051902;28;20048;-60
2023/12/05 05:13:57;;;;;;;3.40;1.30;;;;;7.10;97131.00;;;;5051075;28;20076;-61
2023/12/05 05:16:25;;;;;;;3.67;1.27;;;;;7.10;97135.00;;;;5052783;28;20045;-60
2023/12/05 05:18:52;;;;;;;6.65;1.30;;;;;7.10;97133.00;;;;5052968;28;20409;-60
2023/12/05 05:21:19;;;;;;;3.35;1.27;;;;;7.10;97126.00;;;;5052731;28;20044;-61
2023/12/05 05:23:46;;;;;;;3.75;1.33;;;;;7.10;97137.00;;;;5050897;28;20041;-61
2023/12/05 05:26:14;;;;;;;3.05;1.60;;;;;7.10;97126.00;;;;5052072;28;20063;-60
2023/12/05 05:28:41;;;;;;;3.03;1.50;;;;;7.10;97134.00;;;;5052590;28;20075;-64
2023/12/05 05:31:07;;;;;;;2.25;1.20;;;;;7.10;97133.00;;;;5052640;28;20045;-63
2023/12/05 05:33:34;;;;;;;2.75;1.38;;;;;7.10;97135.00;;;;5051930;28;20124;-64
2023/12/05 05:36:01;;;;;;;4.45;1.70;;;;;7.10;97129.00;;;;5051325;28;20037;-63
2023/12/05 05:38:28;;;;;;;3.22;1.60;;;;;7.10;97138.00;;;;5052510;28;20048;-64
2023/12/05 05:41:06;;;;;;;4.18;1.20;;;;;7.10;97140.00;;;;5051308;28;20094;-64
2023/12/05 05:43:33;;;;;;;2.50;1.42;;;;;7.10;97139.00;;;;5050782;28;20057;-64
2023/12/05 05:46:00;;;;;;;7.60;1.65;;;;;7.10;97145.00;;;;5050837;28;20560;-63
2023/12/05 05:48:27;;;;;;;3.05;1.35;;;;;7.10;97141.00;;;;5052291;28;20045;-64
2023/12/05 05:50:54;;;;;;;5.28;1.50;;;;;7.10;97139.00;;;;5052329;28;20128;-64
2023/12/05 05:53:21;;;;;;;2.38;1.20;;;;;7.20;97140.00;;;;5051927;28;20127;-64
2023/12/05 05:55:48;;;;;;;5.97;1.30;;;;;7.20;97139.00;;;;5050573;28;20365;-64
2023/12/05 05:58:14;;;;;;;2.13;1.33;;;;;7.20;97144.00;;;;5052317;28;20498;-62
2023/12/05 06:00:41;;;;;;;1.25;0.90;;;;;7.20;97143.00;;;;5052134;28;20486;-61
2023/12/05 06:03:08;;;;;;;2.20;1.20;;;;;7.20;97153.00;;;;5052015;28;20051;-60
2023/12/05 06:05:34;;;;;;;1.48;1.27;;;;;7.20;97149.00;;;;5051407;28;20128;-61
2023/12/05 06:08:01;;;;;;;2.55;1.45;;;;;7.20;97143.00;;;;5051914;28;20094;-61
2023/12/05 06:10:28;;;;;;;2.97;1.50;;;;;7.20;97154.00;;;;5052023;28;20490;-61
2023/12/05 06:12:54;;;;;;;2.28;1.50;;;;;7.30;97149.00;;;;5050664;28;20144;-61
2023/12/05 06:15:21;;;;;;;8.15;2.35;;;;;7.30;97148.00;;;;5051293;28;20045;-62
2023/12/05 06:17:48;;;;;;;4.03;1.25;;;;;7.30;97147.00;;;;5051865;28;20094;-60
2023/12/05 06:20:14;;;;;;;1.35;1.10;;;;;7.30;97142.00;;;;5051981;28;20068;-60
2023/12/05 06:22:41;;;;;;;4.00;1.15;;;;;7.30;97150.00;;;;5051705;28;20052;-61
2023/12/05 06:25:08;;;;;;;2.75;1.55;;;;;7.30;97145.00;;;;5051221;28;20045;-61
2023/12/05 06:27:34;;;;;;;1.23;1.00;;;;;7.30;97143.00;;;;5050485;28;20128;-61
2023/12/05 06:30:01;;;;;;;5.22;1.75;;;;;7.40;97155.00;;;;5051754;28;20045;-61
2023/12/05 06:32:42;;;;;;;5.78;2.10;;;;;7.40;97158.00;;;;5053208;28;20052;-61
2023/12/05 06:35:09;;;;;;;3.47;1.38;;;;;7.40;97149.00;;;;5051909;28;20044;-64
2023/12/05 06:37:36;;;;;;;6.35;1.25;;;;;7.40;97152.00;;;;5051123;28;20053;-60
2023/12/05 06:40:03;;;;;;;2.30;1.05;;;;;7.40;97162.00;;;;5056121;28;20049;-60
2023/12/05 06:42:30;;;;;;;2.67;1.45;;;;;7.40;97164.00;;;;5056293;28;20498;-61
2023/12/05 06:44:56;;;;;;;7.93;1.33;;;;;7.40;97163.00;;;;5054312;28;20068;-61
2023/12/05 06:47:23;;;;;;;3.80;1.20;;;;;7.30;97175.00;;;;5054909;28;20490;-61
2023/12/05 06:49:49;;;;;;;1.52;1.20;;;;;7.40;97169.00;;;;5056161;28;20170;-63
2023/12/05 06:52:22;;;;;;;3.42;1.20;;;;;7.30;97166.00;;;;5056323;28;20513;-61
2023/12/05 06:54:49;;;;;;;4.72;1.20;;;;;7.30;97170.00;;;;5055713;28;20055;-62
2023/12/05 06:57:15;;;;;;;3.20;1.30;;;;;7.30;97170.00;;;;5055327;28;20068;-61
2023/12/05 06:59:42;;;;;;;2.92;1.23;;;;;7.30;97165.00;;;;5056598;28;20135;-61
2023/12/05 07:02:09;;;;;;;3.15;1.80;;;;;7.30;97185.00;;;;5055799;28;20067;-61
2023/12/05 07:04:35;;;;;;;3.83;1.13;;;;;7.30;97177.00;;;;5056414;28;20136;-61
2023/12/05 07:07:02;;;;;;;4.40;1.95;;;;;7.40;97185.00;;;;5056231;28;20045;-62
2023/12/05 07:09:30;;;;;;;2.47;1.60;;;;;7.40;97187.00;;;;5055612;28;20207;-64
2023/12/05 07:11:57;;;;;;;3.90;1.35;;;;;7.40;97194.00;;;;5056607;28;20404;-64
2023/12/05 07:14:24;;;;;;;6.40;1.80;;;;;7.40;97191.00;;;;5055158;28;20073;-64
2023/12/05 07:16:50;;;;;;;5.28;1.42;;;;;7.40;97194.00;;;;5055496;28;20072;-62
2023/12/05 07:19:17;;;;;;;4.68;1.25;;;;;7.40;97201.00;;;;5055533;28;20041;-64
2023/12/05 07:21:47;;;;;;;2.00;1.20;;;;;7.40;97204.00;;;;5055180;28;20076;-64
2023/12/05 07:24:13;;;;;;;3.83;1.27;;;;;7.40;97205.00;;;;5054617;28;20429;-64
2023/12/05 07:26:40;;;;;;;3.17;1.63;;;;;7.40;97217.00;;;;5054986;28;20045;-64
2023/12/05 07:29:07;;;;;;;3.35;1.50;;;;;7.50;97217.00;;;;5055058;28;20047;-63
2023/12/05 07:31:34;;;;;;;2.65;1.55;;;;;7.60;97227.00;;;;5053578;28;20131;-64
2023/12/05 07:34:01;;;;;;;2.72;1.20;;;;;7.50;97226.00;;;;5053065;28;20132;-63
2023/12/05 07:36:28;;;;;;;3.63;1.15;;;;;7.60;97225.00;;;;5054760;28;20045;-63
2023/12/05 07:38:55;;;;;;;2.10;1.10;;;;;7.60;97226.00;;;;5053575;28;20051;-63
2023/12/05 07:41:24;;;;;;;1.55;1.25;;;;;7.60;97241.00;;;;5053562;28;20045;-63
2023/12/05 07:43:51;;;;;;;3.53;1.25;;;;;7.60;97237.00;;;;5052833;28;20146;-64
2023/12/05 07:46:18;;;;;;;5.47;1.20;;;;;7.60;97235.00;;;;5054575;28;20094;-64
2023/12/05 07:48:45;;;;;;;2.17;1.38;;;;;7.60;97244.00;;;;5054688;28;20045;-64
2023/12/05 07:51:18;;;;;;;3.72;1.30;;;;;7.60;97234.00;;;;5052737;28;20044;-66
2023/12/05 07:53:48;;;;;;;2.40;1.20;;;;;7.60;97238.00;;;;5054199;28;20041;-63
2023/12/05 07:56:15;;;;;;;5.43;1.80;;;;;7.60;97237.00;;;;5054728;28;20037;-63
2023/12/05 07:58:42;;;;;;;2.08;1.40;;;;;7.70;97241.00;;;;5054611;28;20052;-64
2023/12/05 08:01:08;;;;;;;2.92;1.58;;;;;7.70;97243.00;;;;5054456;28;20479;-63
2023/12/05 08:03:35;;;;;;;3.38;1.40;;;;;7.70;97246.00;;;;5053969;28;20043;-64
2023/12/05 08:06:02;;;;;;;3.28;1.40;;;;;7.80;97240.00;;;;5054252;28;20494;-64
2023/12/05 08:08:34;;;;;;;4.45;1.42;;;;;7.80;97244.00;;;;5054231;28;20444;-64
2023/12/05 08:11:01;;;;;;;3.80;2.00;;;;;7.80;97245.00;;;;5053016;28;20132;-64
2023/12/05 08:13:28;;;;;;;3.75;2.22;;;;;7.80;97252.00;;;;5053591;28;20047;-63
2023/12/05 08:15:54;;;;;;;2.05;1.55;;;;;7.90;97248.00;;;;5054114;28;20095;-64
2023/12/05 08:18:21;;;;;;;5.40;2.40;;;;;7.90;97252.00;;;;5054120;28;20041;-64
2023/12/05 08:20:49;;;;;;;7.10;2.47;;;;;7.90;97249.00;;;;5054028;28;20119;-64
2023/12/05 08:23:15;;;;;;;3.78;1.42;;;;;7.90;97253.00;;;;5053962;28;20107;-63
2023/12/05 08:25:42;;;;;;;2.67;1.45;;;;;8.00;97257.00;;;;5053273;28;20071;-64
2023/12/05 08:28:08;;;;;;;3.70;1.73;;;;;8.10;97255.00;;;;5052838;28;20037;-63
2023/12/05 08:30:35;;;;;;;2.33;1.75;;;;;8.20;97254.00;;;;5053879;28;20051;-63
2023/12/05 08:33:02;;;;;;;5.97;1.83;;;;;8.30;97256.00;;;;5053870;28;20405;-64
2023/12/05 08:35:29;;;;;;;1.27;1.10;;;;;8.40;97239.00;;;;5053237;28;20040;-62
2023/12/05 08:37:55;;;;;;;1.42;1.23;;;;;8.40;97260.00;;;;5053644;28;20045;-63
2023/12/05 08:40:22;;;;;;;2.72;1.00;;;;;8.40;97255.00;;;;5053678;28;20115;-63
2023/12/05 08:42:49;;;;;;;3.05;1.23;;;;;8.30;97262.00;;;;5053640;28;20045;-63
2023/12/05 08:45:15;;;;;;;1.77;1.17;;;;;8.20;97269.00;;;;5051626;28;20044;-64
2023/12/05 08:47:42;;;;;;;2.63;1.33;;;;;8.10;97283.00;;;;5053486;28;20037;-64
2023/12/05 08:50:09;;;;;;;5.85;2.17;;;;;8.10;97269.00;;;;5052249;28;20041;-63
2023/12/05 08:52:36;;;;;;;3.95;1.40;;;;;8.10;97261.00;;;;5052065;28;20049;-64
2023/12/05 08:55:03;;;;;;;3.33;2.10;;;;;8.10;97247.00;;;;5052838;28;20047;-64
2023/12/05 08:57:30;;;;;;;2.78;1.60;;;;;8.20;97253.00;;;;5053455;28;20055;-63
2023/12/05 08:59:56;;;;;;;2.85;1.40;;;;;8.30;97259.00;;;;5053408;28;20404;-62
2023/12/05 09:02:24;;;;;;;2.65;1.30;;;;;8.30;97264.00;;;;5052289;28;20041;-61
2023/12/05 09:04:50;;;;;;;1.85;1.30;;;;;8.40;97258.00;;;;5051342;28;20394;-62
2023/12/05 09:07:17;;;;;;;3.28;1.35;;;;;8.40;97262.00;;;;5052685;28;20048;-62
2023/12/05 09:09:44;;;;;;;3.25;1.25;;;;;8.30;97261.00;;;;5053202;28;20094;-62
2023/12/05 09:12:10;;;;;;;1.55;1.33;;;;;8.30;97264.00;;;;5053190;28;20091;-62
2023/12/05 09:14:37;;;;;;;2.22;1.33;;;;;8.30;97265.00;;;;5052482;28;20047;-62
2023/12/05 09:17:04;;;;;;;2.67;1.40;;;;;8.30;97264.00;;;;5053004;28;20091;-64
2023/12/05 09:19:30;;;;;;;1.30;1.15;;;;;8.30;97277.00;;;;5053226;28;20457;-65
2023/12/05 09:21:57;;;;;;;4.05;0.95;;;;;8.30;97278.00;;;;5052781;28;20037;-63
2023/12/05 09:24:24;;;;;;;1.83;1.05;;;;;8.20;97280.00;;;;5052367;28;20127;-63
2023/12/05 09:26:51;;;;;;;1.90;1.00;;;;;8.20;97287.00;;;;5051575;28;20041;-62
2023/12/05 09:29:19;;;;;;;3.25;0.90;;;;;8.20;97283.00;;;;5052804;28;20044;-63
2023/12/05 09:31:45;;;;;;;4.18;1.02;;;;;8.30;97287.00;;;;5052768;28;20045;-61
2023/12/05 09:34:12;;;;;;;0.90;0.90;;;;;8.30;97288.00;;;;5052039;28;20056;-60
2023/12/05 09:36:39;;;;;;;1.88;0.95;;;;;8.20;97291.00;;;;5049103;28;20048;-62
2023/12/05 09:39:05;;;;;;;1.00;0.80;;;;;8.20;97294.00;;;;5032662;28;20041;-62
2023/12/05 09:41:40;;;;;;;2.80;1.48;;;;;8.10;97299.00;;;;5032670;28;20099;-62
2023/12/05 09:44:08;;;;;;;1.67;1.00;;;;;8.20;97298.00;;;;5032361;28;20048;-63
2023/12/05 09:46:36;;;;;;;2.35;0.90;;;;;8.10;97294.00;;;;5032727;28;20050;-62
2023/12/05 09:49:14;;;;;;;1.33;1.10;;;;;8.20;97298.00;;;;5032542;28;20056;-63
2023/12/05 09:51:42;;;;;;;1.48;0.80;;;;;8.20;97307.00;;;;5032671;28;20100;-62
2023/12/05 09:54:11;;;;;;;1.30;0.80;;;;;8.10;97301.00;;;;5030541;28;20461;-63
2023/12/05 09:56:39;;;;;;;2.17;0.93;;;;;8.10;97303.00;;;;5031130;28;20057;-61
2023/12/05 09:59:05;;;;;;;1.80;1.00;;;;;8.10;97305.00;;;;5032429;28;20052;-62
2023/12/05 10:01:34;;;;;;;1.90;0.98;;;;;8.20;97310.00;;;;5032120;28;20057;-62
2023/12/05 10:04:01;;;;;;;1.48;0.90;;;;;8.30;97314.00;;;;5030509;28;20044;-64
2023/12/05 10:06:31;;;;;;;1.10;1.00;;;;;8.30;97304.00;;;;5031056;28;20037;-61
2023/12/05 10:08:59;;;;;;;1.52;1.00;;;;;8.30;97311.00;;;;5032056;28;20093;-63
2023/12/05 10:11:29;;;;;;;1.85;0.90;;;;;8.30;97314.00;;;;5032205;28;20049;-63
2023/12/05 10:13:57;;;;;;;1.80;0.98;;;;;8.30;97320.00;;;;5029951;28;20499;-62
2023/12/05 10:16:26;;;;;;;1.30;0.90;;;;;8.20;97316.00;;;;5031032;28;20049;-63
2023/12/05 10:18:53;;;;;;;1.90;1.05;;;;;8.20;97304.00;;;;5032116;28;20282;-61
2023/12/05 10:21:20;;;;;;;1.95;1.10;;;;;8.20;97316.00;;;;5030801;28;20037;-62
2023/12/05 10:23:49;;;;;;;2.53;0.98;;;;;8.10;97316.00;;;;5031282;28;20506;-62
2023/12/05 10:26:16;;;;;;;3.15;0.98;;;;;8.00;97310.00;;;;5031961;28;20052;-63
2023/12/05 10:28:53;;;;;;;1.35;0.80;;;;;8.00;97313.00;;;;5030908;28;20049;-62
2023/12/05 10:31:19;;;;;;;2.03;1.00;;;;;7.90;97311.00;;;;5032001;28;20404;-62
2023/12/05 10:33:48;;;;;;;1.70;1.00;;;;;8.00;97306.00;;;;5031298;28;20132;-63
2023/12/05 10:36:15;;;;;;;2.88;0.90;;;;;7.90;97305.00;;;;5031841;28;20046;-62
2023/12/05 10:38:44;;;;;;;3.78;1.13;;;;;7.90;97315.00;;;;5031857;28;20121;-63
2023/12/05 10:41:10;;;;;;;3.05;1.00;;;;;7.90;97307.00;;;;5031812;28;20513;-65
2023/12/05 10:43:37;;;;;;;1.70;1.02;;;;;7.90;97306.00;;;;5029996;28;20042;-64
2023/12/05 10:46:05;;;;;;;2.13;1.30;;;;;7.90;97302.00;;;;5031675;28;20045;-65
2023/12/05 10:48:31;;;;;;;1.17;0.90;;;;;7.90;97295.00;;;;5031702;28;20041;-65
2023/12/05 10:51:00;;;;;;;2.80;0.93;;;;;7.90;97302.00;;;;5031744;28;20069;-64
2023/12/05 10:53:27;;;;;;;3.22;1.20;;;;;7.90;97301.00;;;;5031091;28;20055;-65
2023/12/05 10:55:54;;;;;;;1.25;1.08;;;;;8.00;97311.00;;;;5031669;28;20042;-65
2023/12/05 10:58:20;;;;;;;1.92;0.90;;;;;7.90;97306.00;;;;5031703;28;20041;-63
2023/12/05 11:00:48;;;;;;;3.25;1.00;;;;;7.90;97304.00;;;;5031829;28;20395;-65
2023/12/05 11:03:15;;;;;;;3.10;1.33;;;;;7.90;97300.00;;;;5031622;28;20038;-65
2023/12/05 11:05:41;;;;;;;3.35;1.20;;;;;8.00;97308.00;;;;5031104;28;20084;-65
2023/12/05 11:08:08;;;;;;;3.15;1.33;;;;;8.10;97304.00;;;;5031433;28;20045;-65
2023/12/05 11:10:35;;;;;;;3.92;1.38;;;;;8.20;97302.00;;;;5031569;28;20042;-64
2023/12/05 11:13:02;;;;;;;1.10;0.98;;;;;8.30;97297.00;;;;5031589;28;20569;-64
2023/12/05 11:15:36;;;;;;;1.85;1.30;;;;;8.30;97301.00;;;;5030796;28;20483;-65
2023/12/05 11:18:25;;;;;;;1.88;1.08;;;;;8.40;97300.00;;;;5031569;28;20060;-64
2023/12/05 11:21:21;;;;;;;2.28;1.20;;;;;8.40;97302.00;;;;5031527;28;20049;-65
2023/12/05 11:24:09;;;;;;;1.58;0.90;;;;;8.30;97302.00;;;;5031110;28;20076;-65
2023/12/05 11:27:04;;;;;;;4.72;1.88;;;;;8.10;97293.00;;;;5035091;28;20042;-65
2023/12/05 11:29:48;;;;;;;1.02;0.90;;;;;8.20;97284.00;;;;5035243;28;20414;-65
2023/12/05 11:32:48;;;;;;;2.42;0.93;;;;;8.10;97281.00;;;;5035466;28;20421;-65
2023/12/05 11:35:33;;;;;;;1.98;1.13;;;;;8.10;97293.00;;;;5034443;28;20111;-65
2023/12/05 11:38:12;;;;;;;1.15;1.10;;;;;8.00;97296.00;;;;5034045;28;20099;-65
2023/12/05 11:40:40;;;;;;;3.78;1.10;;;;;7.90;97299.00;;;;5033979;28;20467;-65
2023/12/05 11:43:11;;;;;;;1.40;1.20;;;;;8.00;97300.00;;;;5035002;28;20103;-64
2023/12/05 11:45:40;;;;;;;1.15;0.88;;;;;8.10;97298.00;;;;5032885;28;20053;-65
2023/12/05 11:48:11;;;;;;;2.03;1.55;;;;;8.10;97304.00;;;;5033528;28;20067;-65
2023/12/05 11:50:43;;;;;;;1.63;1.20;;;;;8.10;97305.00;;;;5033733;28;20053;-64
2023/12/05 11:53:12;;;;;;;2.50;2.20;;;;;8.10;97301.00;;;;5034697;28;20048;-63
2023/12/05 11:55:42;;;;;;;5.70;3.03;;;;;8.00;97307.00;;;;5034117;28;20505;-62
2023/12/05 11:58:27;;;;;;;1.58;0.80;;;;;8.00;97312.00;;;;5034524;28;20052;-63
2023/12/05 12:01:00;;;;;;;0.95;0.80;;;;;7.90;97306.00;;;;5034620;28;20412;-64
2023/12/05 12:03:28;;;;;;;2.22;1.00;;;;;7.70;97307.00;;;;5034158;28;20041;-64
2023/12/05 12:06:02;;;;;;;1.55;0.80;;;;;7.60;97314.00;;;;5034595;28;20461;-64
2023/12/05 12:08:30;;;;;;;0.50;0.50;;;;;7.40;97301.00;;;;5034475;28;20045;-62
2023/12/05 12:10:57;;;;;;;0.60;0.50;;;;;7.30;97319.00;;;;5034332;28;20068;-62
2023/12/05 12:13:24;;;;;;;2.83;0.57;;;;;7.20;97321.00;;;;5033994;28;20437;-63
2023/12/05 12:15:51;;;;;;;1.52;0.70;;;;;7.20;97318.00;;;;5016582;28;20060;-63
2023/12/05 12:18:25;;;;;;;1.13;0.80;;;;;7.20;97323.00;;;;5034388;28;20041;-64
2023/12/05 12:21:02;;;;;;;0.65;0.60;;;;;7.30;97318.00;;;;5034336;28;20501;-64
2023/12/05 12:23:29;;;;;;;0.70;0.63;;;;;7.40;97332.00;;;;5033828;28;20487;-65
2023/12/05 12:26:00;;;;;;;1.27;0.70;;;;;7.40;97328.00;;;;5034214;28;20045;-65
2023/12/05 12:28:28;;;;;;;1.73;0.80;;;;;7.40;97333.00;;;;5032941;28;20506;-64
2023/12/05 12:30:59;;;;;;;0.73;0.65;;;;;7.40;97323.00;;;;5034120;28;20041;-64